createdAt,value
2022-09-21T00:03:19.607Z,1.75
2022-09-21T00:08:22.322Z,2.15
2022-09-21T00:13:27.453Z,1.90
2022-09-21T00:18:30.983Z,1.95
2022-09-21T00:23:36.124Z,2.03
2022-09-21T00:28:40.381Z,1.80
2022-09-21T00:33:46.347Z,2.17
2022-09-21T00:38:57.435Z,1.95
2022-09-21T00:44:32.389Z,2.05
2022-09-21T00:49:35.806Z,2.20
2022-09-21T00:54:49.788Z,2.10
2022-09-21T00:59:54.616Z,2.30
2022-09-21T01:04:57.346Z,2.05
2022-09-21T01:10:06.083Z,2.47
2022-09-21T01:15:17.559Z,2.10
2022-09-21T01:20:31.924Z,2.70
2022-09-21T01:25:53.164Z,2.42
2022-09-21T01:31:00.646Z,2.53
2022-09-21T01:36:12.358Z,2.50
2022-09-21T01:41:18.243Z,2.30
2022-09-21T01:46:22.698Z,2.50
2022-09-21T01:51:27.860Z,2.20
2022-09-21T01:56:51.904Z,2.60
2022-09-21T02:02:02.198Z,2.30
2022-09-21T02:07:06.307Z,2.33
2022-09-21T02:12:09.841Z,2.10
2022-09-21T02:17:31.277Z,2.05
2022-09-21T02:22:44.224Z,2.50
2022-09-21T02:28:12.003Z,2.30
2022-09-21T02:33:35.794Z,2.30
2022-09-21T02:38:46.251Z,1.92
2022-09-21T02:44:12.797Z,1.90
2022-09-21T02:49:39.307Z,1.95
2022-09-21T02:54:46.988Z,2.33
2022-09-21T02:59:50.727Z,2.15
2022-09-21T03:04:54.281Z,2.50
2022-09-21T03:09:58.069Z,2.28
2022-09-21T03:15:21.325Z,2.20
2022-09-21T03:20:25.962Z,2.22
2022-09-21T03:25:29.539Z,2.20
2022-09-21T03:30:32.778Z,2.65
2022-09-21T03:35:35.258Z,2.30
2022-09-21T03:40:40.627Z,2.40
2022-09-21T03:45:44.700Z,2.33
2022-09-21T03:50:48.315Z,2.30
2022-09-21T03:55:50.853Z,2.00
2022-09-21T04:00:56.661Z,2.00
2022-09-21T04:05:59.238Z,2.08
2022-09-21T04:11:02.520Z,2.40
2022-09-21T04:16:06.400Z,2.10
2022-09-21T04:21:09.333Z,1.95
2022-09-21T04:26:30.086Z,2.50
2022-09-21T04:31:34.061Z,2.40
2022-09-21T04:36:36.994Z,2.10
2022-09-21T04:41:42.074Z,2.30
2022-09-21T04:46:44.743Z,2.15
2022-09-21T04:51:49.618Z,2.50
2022-09-21T04:56:52.652Z,2.10
2022-09-21T05:01:55.166Z,2.15
2022-09-21T05:06:59.477Z,2.20
2022-09-21T05:12:04.095Z,2.25
2022-09-21T05:17:06.790Z,2.22
2022-09-21T05:22:09.628Z,2.05
2022-09-21T05:27:14.498Z,2.28
2022-09-21T05:37:39.761Z,1.85
2022-09-21T05:42:42.775Z,2.20
2022-09-21T05:47:48.006Z,2.30
2022-09-21T05:53:28.239Z,1.88
2022-09-21T05:58:41.905Z,2.65
2022-09-21T06:03:44.765Z,2.30
2022-09-21T06:08:47.757Z,2.60
2022-09-21T06:13:50.227Z,2.60
2022-09-21T06:18:53.153Z,2.80
2022-09-21T06:23:55.676Z,2.40
2022-09-21T06:28:58.142Z,2.42
2022-09-21T06:34:02.525Z,2.40
2022-09-21T06:39:05.151Z,2.60
2022-09-21T06:44:07.755Z,2.40
2022-09-21T06:49:11.045Z,3.30
2022-09-21T06:54:13.825Z,2.92
2022-09-21T06:59:16.457Z,2.60
2022-09-21T07:04:24.973Z,2.92
2022-09-21T07:14:50.765Z,3.40
2022-09-21T07:19:53.358Z,3.55
2022-09-21T07:24:57.527Z,3.92
2022-09-21T07:30:00.330Z,4.20
2022-09-21T07:35:03.109Z,3.97
2022-09-21T07:40:06.456Z,4.78
2022-09-21T07:45:11.590Z,5.50
2022-09-21T07:50:14.884Z,6.30
2022-09-21T07:55:17.874Z,5.15
2022-09-21T08:00:20.476Z,4.38
2022-09-21T08:05:23.042Z,5.03
2022-09-21T08:10:30.105Z,3.80
2022-09-21T08:15:50.117Z,4.65
2022-09-21T08:20:57.879Z,5.53
2022-09-21T08:26:06.726Z,5.18
2022-09-21T08:31:10.830Z,5.10
2022-09-21T08:36:13.626Z,4.45
2022-09-21T08:41:53.875Z,3.50
2022-09-21T08:47:24.534Z,3.13
2022-09-21T08:52:27.250Z,2.80
2022-09-21T08:57:31.602Z,2.63
2022-09-21T09:02:55.926Z,2.55
2022-09-21T09:08:18.085Z,2.55
2022-09-21T09:13:23.610Z,2.42
2022-09-21T09:18:44.391Z,2.35
2022-09-21T09:24:04.828Z,2.28
2022-09-21T09:29:42.194Z,2.30
2022-09-21T09:35:07.752Z,2.45
2022-09-21T09:40:13.483Z,2.30
2022-09-21T09:45:37.340Z,2.13
2022-09-21T09:50:41.969Z,2.10
2022-09-21T09:55:49.724Z,2.60
2022-09-21T10:00:55.299Z,2.17
2022-09-21T10:05:58.130Z,1.90
2022-09-21T10:11:00.750Z,2.17
2022-09-21T10:16:18.596Z,2.38
2022-09-21T10:21:39.446Z,2.13
2022-09-21T10:26:46.271Z,2.25
2022-09-21T10:32:19.652Z,2.13
2022-09-21T10:42:36.878Z,1.83
2022-09-21T10:47:40.032Z,1.92
2022-09-21T10:52:46.030Z,1.53
2022-09-21T10:57:51.278Z,1.90
2022-09-21T11:08:24.434Z,1.50
2022-09-21T11:13:27.133Z,2.03
2022-09-21T11:18:38.829Z,2.08
2022-09-21T11:24:25.680Z,2.03
2022-09-21T11:29:32.309Z,1.90
2022-09-21T11:34:48.505Z,1.60
2022-09-21T11:40:09.805Z,2.20
2022-09-21T11:45:29.517Z,2.10
2022-09-21T11:51:13.983Z,2.08
2022-09-21T11:56:26.387Z,2.08
2022-09-21T12:01:59.734Z,2.00
2022-09-21T12:07:17.875Z,1.70
2022-09-21T12:13:02.305Z,1.83
2022-09-21T12:18:09.425Z,1.48
2022-09-21T12:23:44.128Z,1.45
2022-09-21T12:29:14.162Z,2.47
2022-09-21T12:34:23.054Z,1.58
2022-09-21T12:39:37.626Z,1.35
2022-09-21T12:44:54.888Z,1.80
2022-09-21T12:50:20.597Z,1.20
2022-09-21T12:55:53.273Z,1.35
2022-09-21T13:01:35.355Z,1.77
2022-09-21T13:07:13.108Z,1.30
2022-09-21T13:12:29.626Z,1.60
2022-09-21T13:17:33.502Z,1.75
2022-09-21T13:22:37.563Z,1.83
2022-09-21T13:28:15.548Z,1.20
2022-09-21T13:33:18.070Z,1.98
2022-09-21T13:38:44.060Z,1.60
2022-09-21T13:44:01.305Z,1.40
2022-09-21T13:49:10.920Z,1.77
2022-09-21T13:54:14.149Z,1.77
2022-09-21T14:04:29.997Z,1.70
2022-09-21T14:09:55.441Z,1.50
2022-09-21T14:15:16.739Z,1.60
2022-09-21T14:20:34.611Z,1.60
2022-09-21T14:25:53.490Z,1.42
2022-09-21T14:31:00.546Z,1.85
2022-09-21T14:36:07.403Z,1.40
2022-09-21T14:41:18.195Z,1.65
2022-09-21T14:47:00.651Z,1.75
2022-09-21T14:52:32.577Z,2.05
2022-09-21T14:58:03.876Z,1.55
2022-09-21T15:03:25.583Z,1.63
2022-09-21T15:08:46.921Z,1.80
2022-09-21T15:14:05.029Z,2.10
2022-09-21T15:19:17.307Z,1.75
2022-09-21T15:24:27.507Z,1.50
2022-09-21T15:29:31.653Z,1.50
2022-09-21T15:34:34.210Z,2.00
2022-09-21T15:39:36.899Z,1.40
2022-09-21T15:44:39.590Z,2.53
2022-09-21T15:49:44.210Z,2.10
2022-09-21T15:54:59.674Z,2.40
2022-09-21T16:00:05.810Z,1.70
2022-09-21T16:05:16.241Z,1.45
2022-09-21T16:10:30.998Z,1.50
2022-09-21T16:15:33.521Z,1.80
2022-09-21T16:20:43.695Z,1.60
2022-09-21T16:25:54.838Z,1.50
2022-09-21T16:30:58.956Z,1.75
2022-09-21T16:36:04.323Z,1.80
2022-09-21T16:41:08.905Z,1.85
2022-09-21T16:46:12.217Z,1.60
2022-09-21T16:51:22.373Z,1.77
2022-09-21T16:56:25.047Z,1.80
2022-09-21T17:01:28.062Z,1.60
2022-09-21T17:06:35.625Z,1.60
2022-09-21T17:11:38.329Z,1.88
2022-09-21T17:16:40.836Z,1.65
2022-09-21T17:21:45.521Z,1.83
2022-09-21T17:26:48.090Z,1.65
2022-09-21T17:31:53.779Z,1.65
2022-09-21T17:36:56.600Z,1.60
2022-09-21T17:42:19.543Z,1.88
2022-09-21T17:47:29.762Z,2.00
2022-09-21T17:52:51.115Z,2.00
2022-09-21T17:58:25.070Z,1.65
2022-09-21T18:03:30.009Z,1.85
